sensor_id;sensor_type;location;lat;lon;timestamp;temperature;humidity
12971;DHT22;6550;48.650;8.774;2024-03-22T00:02:08;11.30;99.90
12971;DHT22;6550;48.650;8.774;2024-03-22T00:04:37;11.20;99.90
12971;DHT22;6550;48.650;8.774;2024-03-22T00:07:03;11.10;99.90
12971;DHT22;6550;48.650;8.774;2024-03-22T00:09:32;11.10;99.90
12971;DHT22;6550;48.650;8.774;2024-03-22T00:12:00;11.00;99.90
12971;DHT22;6550;48.650;8.774;2024-03-22T00:14:26;11.10;99.90
12971;DHT22;6550;48.650;8.774;2024-03-22T00:16:52;11.10;99.90
12971;DHT22;6550;48.650;8.774;2024-03-22T00:19:20;10.80;99.90
12971;DHT22;6550;48.650;8.774;2024-03-22T00:21:48;10.90;99.90
12971;DHT22;6550;48.650;8.774;2024-03-22T00:24:16;10.90;99.90
12971;DHT22;6550;48.650;8.774;2024-03-22T00:26:42;10.70;99.90
12971;DHT22;6550;48.650;8.774;2024-03-22T00:29:10;10.80;99.90
12971;DHT22;6550;48.650;8.774;2024-03-22T00:31:35;11.00;99.90
12971;DHT22;6550;48.650;8.774;2024-03-22T00:34:01;11.00;99.90
12971;DHT22;6550;48.650;8.774;2024-03-22T00:36:27;11.40;99.90
12971;DHT22;6550;48.650;8.774;2024-03-22T00:38:53;10.90;99.90
12971;DHT22;6550;48.650;8.774;2024-03-22T00:43:47;10.70;99.90
12971;DHT22;6550;48.650;8.774;2024-03-22T00:46:16;10.60;99.90
12971;DHT22;6550;48.650;8.774;2024-03-22T00:51:07;10.80;99.90
12971;DHT22;6550;48.650;8.774;2024-03-22T00:53:36;10.60;99.90
12971;DHT22;6550;48.650;8.774;2024-03-22T00:56:02;10.60;99.90
12971;DHT22;6550;48.650;8.774;2024-03-22T01:03:22;10.30;99.90
12971;DHT22;6550;48.650;8.774;2024-03-22T01:05:50;10.60;99.90
12971;DHT22;6550;48.650;8.774;2024-03-22T01:08:18;10.10;99.90
12971;DHT22;6550;48.650;8.774;2024-03-22T01:10:45;10.30;99.90
12971;DHT22;6550;48.650;8.774;2024-03-22T01:13:11;10.20;99.90
12971;DHT22;6550;48.650;8.774;2024-03-22T01:15:36;10.40;99.90
12971;DHT22;6550;48.650;8.774;2024-03-22T01:18:07;10.20;99.90
12971;DHT22;6550;48.650;8.774;2024-03-22T01:23:00;11.30;99.90
12971;DHT22;6550;48.650;8.774;2024-03-22T01:25:28;10.20;99.90
12971;DHT22;6550;48.650;8.774;2024-03-22T01:27:56;10.00;99.90
12971;DHT22;6550;48.650;8.774;2024-03-22T01:30:22;10.00;99.90
12971;DHT22;6550;48.650;8.774;2024-03-22T01:32:48;10.00;99.90
12971;DHT22;6550;48.650;8.774;2024-03-22T01:35:16;9.70;99.90
12971;DHT22;6550;48.650;8.774;2024-03-22T01:37:42;9.90;99.90
12971;DHT22;6550;48.650;8.774;2024-03-22T01:40:08;10.00;99.90
12971;DHT22;6550;48.650;8.774;2024-03-22T01:42:34;9.90;99.90
12971;DHT22;6550;48.650;8.774;2024-03-22T01:45:00;9.70;99.90
12971;DHT22;6550;48.650;8.774;2024-03-22T01:47:26;9.80;99.90
12971;DHT22;6550;48.650;8.774;2024-03-22T01:49:53;9.90;99.90
12971;DHT22;6550;48.650;8.774;2024-03-22T01:52:20;9.80;99.90
12971;DHT22;6550;48.650;8.774;2024-03-22T01:54:46;11.20;99.90
12971;DHT22;6550;48.650;8.774;2024-03-22T01:57:12;9.70;99.90
12971;DHT22;6550;48.650;8.774;2024-03-22T01:59:38;9.70;99.90
12971;DHT22;6550;48.650;8.774;2024-03-22T02:02:04;9.70;99.90
12971;DHT22;6550;48.650;8.774;2024-03-22T02:04:30;9.20;99.90
12971;DHT22;6550;48.650;8.774;2024-03-22T02:06:56;10.10;99.90
12971;DHT22;6550;48.650;8.774;2024-03-22T02:09:24;9.60;99.90
12971;DHT22;6550;48.650;8.774;2024-03-22T02:11:55;9.60;99.90
12971;DHT22;6550;48.650;8.774;2024-03-22T02:16:47;9.60;99.90
12971;DHT22;6550;48.650;8.774;2024-03-22T02:21:41;9.60;99.90
12971;DHT22;6550;48.650;8.774;2024-03-22T02:24:10;9.30;99.90
12971;DHT22;6550;48.650;8.774;2024-03-22T02:26:36;9.40;99.90
12971;DHT22;6550;48.650;8.774;2024-03-22T02:29:01;9.30;99.90
12971;DHT22;6550;48.650;8.774;2024-03-22T02:31:30;9.40;99.90
12971;DHT22;6550;48.650;8.774;2024-03-22T02:33:58;9.30;99.90
12971;DHT22;6550;48.650;8.774;2024-03-22T02:36:24;9.20;99.90
12971;DHT22;6550;48.650;8.774;2024-03-22T02:38:49;9.30;99.90
12971;DHT22;6550;48.650;8.774;2024-03-22T02:41:15;9.30;99.90
12971;DHT22;6550;48.650;8.774;2024-03-22T02:46:09;9.20;99.90
12971;DHT22;6550;48.650;8.774;2024-03-22T02:48:37;9.10;99.90
12971;DHT22;6550;48.650;8.774;2024-03-22T02:51:03;9.30;99.90
12971;DHT22;6550;48.650;8.774;2024-03-22T02:53:29;9.30;99.90
12971;DHT22;6550;48.650;8.774;2024-03-22T02:55:55;9.20;99.90
12971;DHT22;6550;48.650;8.774;2024-03-22T02:58:23;9.20;99.90
12971;DHT22;6550;48.650;8.774;2024-03-22T03:00:56;9.10;99.90
12971;DHT22;6550;48.650;8.774;2024-03-22T03:03:22;9.10;99.90
12971;DHT22;6550;48.650;8.774;2024-03-22T03:05:50;9.20;99.90
12971;DHT22;6550;48.650;8.774;2024-03-22T03:08:17;9.40;99.90
12971;DHT22;6550;48.650;8.774;2024-03-22T03:10:43;9.10;99.90
12971;DHT22;6550;48.650;8.774;2024-03-22T03:15:37;9.20;99.90
12971;DHT22;6550;48.650;8.774;2024-03-22T03:18:06;9.20;99.90
12971;DHT22;6550;48.650;8.774;2024-03-22T03:20:31;8.80;99.90
12971;DHT22;6550;48.650;8.774;2024-03-22T03:22:57;9.00;99.90
12971;DHT22;6550;48.650;8.774;2024-03-22T03:25:30;9.20;99.90
12971;DHT22;6550;48.650;8.774;2024-03-22T03:27:58;9.20;99.90
12971;DHT22;6550;48.650;8.774;2024-03-22T03:30:24;9.20;99.90
12971;DHT22;6550;48.650;8.774;2024-03-22T03:32:49;9.00;99.90
12971;DHT22;6550;48.650;8.774;2024-03-22T03:35:17;9.20;99.90
12971;DHT22;6550;48.650;8.774;2024-03-22T03:37:43;9.20;99.90
12971;DHT22;6550;48.650;8.774;2024-03-22T03:40:09;9.30;99.90
12971;DHT22;6550;48.650;8.774;2024-03-22T03:42:35;9.20;99.90
12971;DHT22;6550;48.650;8.774;2024-03-22T03:47:29;9.20;99.90
12971;DHT22;6550;48.650;8.774;2024-03-22T03:50:01;9.30;99.90
12971;DHT22;6550;48.650;8.774;2024-03-22T03:52:27;9.10;99.90
12971;DHT22;6550;48.650;8.774;2024-03-22T03:54:54;9.30;99.90
12971;DHT22;6550;48.650;8.774;2024-03-22T03:57:20;9.40;99.90
12971;DHT22;6550;48.650;8.774;2024-03-22T03:59:47;9.20;99.90
12971;DHT22;6550;48.650;8.774;2024-03-22T04:02:15;9.50;99.90
12971;DHT22;6550;48.650;8.774;2024-03-22T04:04:41;9.20;99.90
12971;DHT22;6550;48.650;8.774;2024-03-22T04:07:09;9.20;99.90
12971;DHT22;6550;48.650;8.774;2024-03-22T04:09:36;9.20;99.90
12971;DHT22;6550;48.650;8.774;2024-03-22T04:12:02;9.30;99.90
12971;DHT22;6550;48.650;8.774;2024-03-22T04:14:27;9.30;99.90
12971;DHT22;6550;48.650;8.774;2024-03-22T04:16:53;9.40;99.90
12971;DHT22;6550;48.650;8.774;2024-03-22T04:19:21;9.30;99.90
12971;DHT22;6550;48.650;8.774;2024-03-22T04:21:49;9.30;99.90
12971;DHT22;6550;48.650;8.774;2024-03-22T04:24:15;9.60;99.90
12971;DHT22;6550;48.650;8.774;2024-03-22T04:26:41;9.40;99.90
12971;DHT22;6550;48.650;8.774;2024-03-22T04:29:07;9.40;99.90
12971;DHT22;6550;48.650;8.774;2024-03-22T04:31:36;9.50;99.90
12971;DHT22;6550;48.650;8.774;2024-03-22T04:34:02;9.40;99.90
12971;DHT22;6550;48.650;8.774;2024-03-22T04:38:55;9.30;99.90
12971;DHT22;6550;48.650;8.774;2024-03-22T04:41:21;9.60;99.90
12971;DHT22;6550;48.650;8.774;2024-03-22T04:43:46;9.50;99.90
12971;DHT22;6550;48.650;8.774;2024-03-22T04:46:12;9.30;99.90
12971;DHT22;6550;48.650;8.774;2024-03-22T04:48:38;9.60;99.90
12971;DHT22;6550;48.650;8.774;2024-03-22T04:51:06;9.40;99.90
12971;DHT22;6550;48.650;8.774;2024-03-22T04:55:59;9.50;99.90
12971;DHT22;6550;48.650;8.774;2024-03-22T05:00:57;9.20;99.90
12971;DHT22;6550;48.650;8.774;2024-03-22T05:03:25;9.40;99.90
12971;DHT22;6550;48.650;8.774;2024-03-22T09:11:54;19.00;99.20
12971;DHT22;6550;48.650;8.774;2024-03-22T09:14:23;18.90;98.00
12971;DHT22;6550;48.650;8.774;2024-03-22T09:16:48;19.00;97.80
12971;DHT22;6550;48.650;8.774;2024-03-22T09:19:17;19.30;99.90
12971;DHT22;6550;48.650;8.774;2024-03-22T09:21:42;19.20;97.60
12971;DHT22;6550;48.650;8.774;2024-03-22T09:24:08;19.10;97.60
12971;DHT22;6550;48.650;8.774;2024-03-22T09:26:35;19.60;99.90
12971;DHT22;6550;48.650;8.774;2024-03-22T09:31:29;19.50;99.90
12971;DHT22;6550;48.650;8.774;2024-03-22T09:36:23;19.80;99.60
12971;DHT22;6550;48.650;8.774;2024-03-22T09:38:50;19.60;97.00
12971;DHT22;6550;48.650;8.774;2024-03-22T09:41:23;19.90;98.00
12971;DHT22;6550;48.650;8.774;2024-03-22T09:43:54;19.80;96.30
12971;DHT22;6550;48.650;8.774;2024-03-22T09:46:23;20.00;99.10
12971;DHT22;6550;48.650;8.774;2024-03-22T09:48:52;19.90;98.90
12971;DHT22;6550;48.650;8.774;2024-03-22T09:51:18;20.10;96.30
12971;DHT22;6550;48.650;8.774;2024-03-22T09:53:45;20.60;98.40
12971;DHT22;6550;48.650;8.774;2024-03-22T09:56:14;20.50;95.70
12971;DHT22;6550;48.650;8.774;2024-03-22T09:58:44;20.70;98.90
12971;DHT22;6550;48.650;8.774;2024-03-22T10:01:13;20.90;96.10
12971;DHT22;6550;48.650;8.774;2024-03-22T10:03:44;20.80;94.90
12971;DHT22;6550;48.650;8.774;2024-03-22T10:08:38;21.30;98.10
12971;DHT22;6550;48.650;8.774;2024-03-22T10:15:58;21.50;96.60
12971;DHT22;6550;48.650;8.774;2024-03-22T10:21:03;22.30;96.70
12971;DHT22;6550;48.650;8.774;2024-03-22T10:23:32;22.10;96.40
12971;DHT22;6550;48.650;8.774;2024-03-22T10:25:59;22.10;93.80
12971;DHT22;6550;48.650;8.774;2024-03-22T10:28:29;21.80;96.30
12971;DHT22;6550;48.650;8.774;2024-03-22T10:33:24;22.00;96.60
12971;DHT22;6550;48.650;8.774;2024-03-22T10:35:53;22.00;93.50
12971;DHT22;6550;48.650;8.774;2024-03-22T10:38:20;21.70;96.60
12971;DHT22;6550;48.650;8.774;2024-03-22T10:40:47;22.20;96.20
12971;DHT22;6550;48.650;8.774;2024-03-22T10:43:16;21.80;96.00
12971;DHT22;6550;48.650;8.774;2024-03-22T10:45:45;21.60;96.20
12971;DHT22;6550;48.650;8.774;2024-03-22T10:48:17;21.50;96.30
12971;DHT22;6550;48.650;8.774;2024-03-22T10:50:44;22.60;96.60
12971;DHT22;6550;48.650;8.774;2024-03-22T10:53:19;22.30;96.40
12971;DHT22;6550;48.650;8.774;2024-03-22T10:55:49;22.30;95.80
12971;DHT22;6550;48.650;8.774;2024-03-22T10:58:21;22.60;92.20
12971;DHT22;6550;48.650;8.774;2024-03-22T11:00:50;22.90;95.20
12971;DHT22;6550;48.650;8.774;2024-03-22T11:03:23;22.30;94.70
12971;DHT22;6550;48.650;8.774;2024-03-22T11:05:54;22.90;95.10
12971;DHT22;6550;48.650;8.774;2024-03-22T11:08:27;22.80;91.70
12971;DHT22;6550;48.650;8.774;2024-03-22T11:10:54;22.90;94.10
12971;DHT22;6550;48.650;8.774;2024-03-22T11:13:20;23.30;94.30
12971;DHT22;6550;48.650;8.774;2024-03-22T11:15:54;23.60;91.40
12971;DHT22;6550;48.650;8.774;2024-03-22T11:18:20;23.70;91.00
12971;DHT22;6550;48.650;8.774;2024-03-22T11:20:51;24.00;90.70
12971;DHT22;6550;48.650;8.774;2024-03-22T11:25:43;24.20;90.10
12971;DHT22;6550;48.650;8.774;2024-03-22T11:28:09;24.30;89.70
12971;DHT22;6550;48.650;8.774;2024-03-22T11:30:38;24.80;90.20
12971;DHT22;6550;48.650;8.774;2024-03-22T11:33:07;24.00;92.00
12971;DHT22;6550;48.650;8.774;2024-03-22T11:35:36;24.20;91.60
12971;DHT22;6550;48.650;8.774;2024-03-22T11:38:01;24.60;87.20
12971;DHT22;6550;48.650;8.774;2024-03-22T11:40:33;24.70;87.00
12971;DHT22;6550;48.650;8.774;2024-03-22T11:45:26;24.80;86.50
12971;DHT22;6550;48.650;8.774;2024-03-22T11:50:19;25.10;91.30
12971;DHT22;6550;48.650;8.774;2024-03-22T11:52:45;24.80;91.30
12971;DHT22;6550;48.650;8.774;2024-03-22T11:55:14;24.60;90.30
12971;DHT22;6550;48.650;8.774;2024-03-22T11:57:40;24.90;86.00
12971;DHT22;6550;48.650;8.774;2024-03-22T12:00:07;24.90;86.00
12971;DHT22;6550;48.650;8.774;2024-03-22T12:02:38;25.00;85.20
12971;DHT22;6550;48.650;8.774;2024-03-22T12:05:05;25.10;85.20
12971;DHT22;6550;48.650;8.774;2024-03-22T12:09:58;25.30;84.10
12971;DHT22;6550;48.650;8.774;2024-03-22T12:12:26;25.40;83.60
12971;DHT22;6550;48.650;8.774;2024-03-22T12:14:53;25.30;83.40
12971;DHT22;6550;48.650;8.774;2024-03-22T12:17:19;25.40;83.70
12971;DHT22;6550;48.650;8.774;2024-03-22T12:19:45;25.30;83.30
12971;DHT22;6550;48.650;8.774;2024-03-22T12:24:39;25.20;83.90
12971;DHT22;6550;48.650;8.774;2024-03-22T12:27:05;25.00;84.40
12971;DHT22;6550;48.650;8.774;2024-03-22T12:29:36;24.80;83.70
12971;DHT22;6550;48.650;8.774;2024-03-22T12:32:04;24.60;82.80
12971;DHT22;6550;48.650;8.774;2024-03-22T12:34:31;24.50;82.30
12971;DHT22;6550;48.650;8.774;2024-03-22T12:36:58;24.50;82.10
12971;DHT22;6550;48.650;8.774;2024-03-22T12:39:26;24.50;82.30
12971;DHT22;6550;48.650;8.774;2024-03-22T12:41:52;24.30;80.70
12971;DHT22;6550;48.650;8.774;2024-03-22T12:44:21;24.30;81.30
12971;DHT22;6550;48.650;8.774;2024-03-22T12:46:49;24.30;80.90
12971;DHT22;6550;48.650;8.774;2024-03-22T12:49:17;24.30;80.40
12971;DHT22;6550;48.650;8.774;2024-03-22T12:54:12;24.20;79.70
12971;DHT22;6550;48.650;8.774;2024-03-22T12:59:13;24.30;79.20
12971;DHT22;6550;48.650;8.774;2024-03-22T13:04:05;24.40;78.40
12971;DHT22;6550;48.650;8.774;2024-03-22T13:06:31;24.50;79.80
12971;DHT22;6550;48.650;8.774;2024-03-22T13:09:00;24.50;79.10
12971;DHT22;6550;48.650;8.774;2024-03-22T13:11:31;24.60;77.30
12971;DHT22;6550;48.650;8.774;2024-03-22T13:13:59;24.70;78.00
12971;DHT22;6550;48.650;8.774;2024-03-22T13:16:28;24.70;78.60
12971;DHT22;6550;48.650;8.774;2024-03-22T13:18:54;24.60;79.70
12971;DHT22;6550;48.650;8.774;2024-03-22T13:21:20;24.60;78.00
12971;DHT22;6550;48.650;8.774;2024-03-22T13:23:48;24.60;79.10
12971;DHT22;6550;48.650;8.774;2024-03-22T13:28:42;24.50;77.20
12971;DHT22;6550;48.650;8.774;2024-03-22T13:31:12;24.50;77.70
12971;DHT22;6550;48.650;8.774;2024-03-22T13:33:38;24.40;77.20
12971;DHT22;6550;48.650;8.774;2024-03-22T13:36:04;24.20;77.60
12971;DHT22;6550;48.650;8.774;2024-03-22T13:40:59;24.00;77.00
12971;DHT22;6550;48.650;8.774;2024-03-22T13:46:02;24.00;77.00
12971;DHT22;6550;48.650;8.774;2024-03-22T13:48:31;24.10;78.00
12971;DHT22;6550;48.650;8.774;2024-03-22T13:50:59;24.30;77.60
12971;DHT22;6550;48.650;8.774;2024-03-22T13:53:27;24.00;78.70
12971;DHT22;6550;48.650;8.774;2024-03-22T13:55:52;23.90;78.50
12971;DHT22;6550;48.650;8.774;2024-03-22T13:58:18;23.70;78.70
12971;DHT22;6550;48.650;8.774;2024-03-22T14:00:46;23.70;79.60
12971;DHT22;6550;48.650;8.774;2024-03-22T14:03:15;23.60;79.00
12971;DHT22;6550;48.650;8.774;2024-03-22T14:05:41;23.50;79.00
12971;DHT22;6550;48.650;8.774;2024-03-22T14:08:07;23.50;79.00
12971;DHT22;6550;48.650;8.774;2024-03-22T14:10:36;23.40;78.40
12971;DHT22;6550;48.650;8.774;2024-03-22T14:13:03;23.40;80.00
12971;DHT22;6550;48.650;8.774;2024-03-22T14:18:00;23.30;78.10
12971;DHT22;6550;48.650;8.774;2024-03-22T14:20:26;23.30;78.40
12971;DHT22;6550;48.650;8.774;2024-03-22T14:22:52;23.30;79.10
12971;DHT22;6550;48.650;8.774;2024-03-22T14:25:19;23.40;78.80
12971;DHT22;6550;48.650;8.774;2024-03-22T14:27:47;23.20;77.60
12971;DHT22;6550;48.650;8.774;2024-03-22T14:30:14;23.20;78.50
12971;DHT22;6550;48.650;8.774;2024-03-22T14:32:41;23.20;78.60
12971;DHT22;6550;48.650;8.774;2024-03-22T14:35:12;23.20;79.10
12971;DHT22;6550;48.650;8.774;2024-03-22T14:37:38;23.20;79.40
12971;DHT22;6550;48.650;8.774;2024-03-22T14:40:05;23.10;78.80
12971;DHT22;6550;48.650;8.774;2024-03-22T14:42:32;23.00;79.10
12971;DHT22;6550;48.650;8.774;2024-03-22T14:44:59;22.90;77.90
12971;DHT22;6550;48.650;8.774;2024-03-22T14:47:25;22.80;77.40
12971;DHT22;6550;48.650;8.774;2024-03-22T14:49:51;22.70;77.40
12971;DHT22;6550;48.650;8.774;2024-03-22T14:52:17;22.60;77.90
12971;DHT22;6550;48.650;8.774;2024-03-22T14:54:43;22.60;78.10
12971;DHT22;6550;48.650;8.774;2024-03-22T14:57:08;22.50;78.60
12971;DHT22;6550;48.650;8.774;2024-03-22T14:59:35;22.50;79.10
12971;DHT22;6550;48.650;8.774;2024-03-22T15:04:27;22.40;78.90
12971;DHT22;6550;48.650;8.774;2024-03-22T15:06:53;22.30;79.40
12971;DHT22;6550;48.650;8.774;2024-03-22T15:09:19;22.20;79.50
12971;DHT22;6550;48.650;8.774;2024-03-22T15:11:49;22.10;79.00
12971;DHT22;6550;48.650;8.774;2024-03-22T15:14:15;21.90;79.30
12971;DHT22;6550;48.650;8.774;2024-03-22T15:16:42;21.90;79.60
12971;DHT22;6550;48.650;8.774;2024-03-22T15:19:11;21.90;79.90
12971;DHT22;6550;48.650;8.774;2024-03-22T15:21:42;22.00;81.00
12971;DHT22;6550;48.650;8.774;2024-03-22T15:24:08;21.80;80.60
12971;DHT22;6550;48.650;8.774;2024-03-22T15:26:33;21.70;80.50
12971;DHT22;6550;48.650;8.774;2024-03-22T15:29:01;21.60;80.40
12971;DHT22;6550;48.650;8.774;2024-03-22T15:31:27;21.50;80.50
12971;DHT22;6550;48.650;8.774;2024-03-22T15:33:53;21.40;80.50
12971;DHT22;6550;48.650;8.774;2024-03-22T15:36:22;21.40;81.10
12971;DHT22;6550;48.650;8.774;2024-03-22T15:41:14;21.00;82.10
12971;DHT22;6550;48.650;8.774;2024-03-22T15:43:44;21.10;81.40
12971;DHT22;6550;48.650;8.774;2024-03-22T15:46:12;21.00;82.30
12971;DHT22;6550;48.650;8.774;2024-03-22T15:51:12;20.80;83.30
12971;DHT22;6550;48.650;8.774;2024-03-22T15:53:39;20.70;82.70
12971;DHT22;6550;48.650;8.774;2024-03-22T15:56:05;20.60;83.40
12971;DHT22;6550;48.650;8.774;2024-03-22T15:58:33;20.50;83.90
12971;DHT22;6550;48.650;8.774;2024-03-22T16:05:54;19.90;84.90
12971;DHT22;6550;48.650;8.774;2024-03-22T16:08:21;20.30;85.20
12971;DHT22;6550;48.650;8.774;2024-03-22T16:10:49;20.00;84.70
12971;DHT22;6550;48.650;8.774;2024-03-22T16:13:15;20.10;85.80
12971;DHT22;6550;48.650;8.774;2024-03-22T16:15:45;20.00;85.50
12971;DHT22;6550;48.650;8.774;2024-03-22T16:18:11;20.00;84.80
12971;DHT22;6550;48.650;8.774;2024-03-22T16:23:13;20.00;85.50
12971;DHT22;6550;48.650;8.774;2024-03-22T16:25:42;19.90;85.50
12971;DHT22;6550;48.650;8.774;2024-03-22T16:28:10;19.80;86.00
12971;DHT22;6550;48.650;8.774;2024-03-22T16:30:40;19.80;86.30
12971;DHT22;6550;48.650;8.774;2024-03-22T16:33:06;19.90;87.10
12971;DHT22;6550;48.650;8.774;2024-03-22T16:35:32;19.80;87.50
12971;DHT22;6550;48.650;8.774;2024-03-22T16:37:58;19.20;87.70
12971;DHT22;6550;48.650;8.774;2024-03-22T16:40:24;19.50;88.20
12971;DHT22;6550;48.650;8.774;2024-03-22T16:45:17;19.20;88.40
12971;DHT22;6550;48.650;8.774;2024-03-22T16:47:47;19.30;87.60
12971;DHT22;6550;48.650;8.774;2024-03-22T16:50:13;19.50;89.20
12971;DHT22;6550;48.650;8.774;2024-03-22T16:52:39;19.20;88.80
12971;DHT22;6550;48.650;8.774;2024-03-22T16:55:06;19.30;88.00
12971;DHT22;6550;48.650;8.774;2024-03-22T16:57:37;19.20;89.50
12971;DHT22;6550;48.650;8.774;2024-03-22T17:00:09;18.90;89.50
12971;DHT22;6550;48.650;8.774;2024-03-22T17:02:35;19.10;90.00
12971;DHT22;6550;48.650;8.774;2024-03-22T17:09:56;18.70;90.50
12971;DHT22;6550;48.650;8.774;2024-03-22T17:12:22;18.80;90.70
12971;DHT22;6550;48.650;8.774;2024-03-22T17:17:15;18.50;90.80
12971;DHT22;6550;48.650;8.774;2024-03-22T17:19:42;18.40;91.10
12971;DHT22;6550;48.650;8.774;2024-03-22T17:22:08;18.30;91.20
12971;DHT22;6550;48.650;8.774;2024-03-22T17:24:34;18.50;91.60
12971;DHT22;6550;48.650;8.774;2024-03-22T17:27:00;18.30;90.90
12971;DHT22;6550;48.650;8.774;2024-03-22T17:31:54;18.10;91.90
12971;DHT22;6550;48.650;8.774;2024-03-22T17:34:23;18.20;91.70
12971;DHT22;6550;48.650;8.774;2024-03-22T17:36:48;18.20;91.80
12971;DHT22;6550;48.650;8.774;2024-03-22T17:39:14;17.80;92.50
12971;DHT22;6550;48.650;8.774;2024-03-22T17:41:40;18.10;92.80
12971;DHT22;6550;48.650;8.774;2024-03-22T17:44:09;18.00;92.90
12971;DHT22;6550;48.650;8.774;2024-03-22T17:49:08;18.10;93.20
12971;DHT22;6550;48.650;8.774;2024-03-22T17:51:39;17.70;92.80
12971;DHT22;6550;48.650;8.774;2024-03-22T17:58:59;17.20;93.80
12971;DHT22;6550;48.650;8.774;2024-03-22T18:01:27;17.30;94.10
12971;DHT22;6550;48.650;8.774;2024-03-22T18:03:53;17.40;94.10
12971;DHT22;6550;48.650;8.774;2024-03-22T18:06:21;17.30;94.30
12971;DHT22;6550;48.650;8.774;2024-03-22T18:08:48;17.00;94.30
12971;DHT22;6550;48.650;8.774;2024-03-22T18:13:43;16.70;94.80
12971;DHT22;6550;48.650;8.774;2024-03-22T18:16:14;16.70;94.80
12971;DHT22;6550;48.650;8.774;2024-03-22T18:18:42;16.80;95.10
12971;DHT22;6550;48.650;8.774;2024-03-22T18:21:11;16.50;95.20
12971;DHT22;6550;48.650;8.774;2024-03-22T18:23:38;16.40;94.70
12971;DHT22;6550;48.650;8.774;2024-03-22T18:26:06;16.60;95.40
12971;DHT22;6550;48.650;8.774;2024-03-22T18:28:36;16.40;95.50
12971;DHT22;6550;48.650;8.774;2024-03-22T18:31:02;16.10;95.50
12971;DHT22;6550;48.650;8.774;2024-03-22T18:33:28;15.90;95.60
12971;DHT22;6550;48.650;8.774;2024-03-22T18:36:03;15.90;95.60
12971;DHT22;6550;48.650;8.774;2024-03-22T18:38:31;16.00;95.40
12971;DHT22;6550;48.650;8.774;2024-03-22T18:45:50;15.70;95.90
12971;DHT22;6550;48.650;8.774;2024-03-22T18:48:18;15.50;96.10
12971;DHT22;6550;48.650;8.774;2024-03-22T18:50:46;15.60;95.50
12971;DHT22;6550;48.650;8.774;2024-03-22T18:53:14;15.40;96.40
12971;DHT22;6550;48.650;8.774;2024-03-22T18:55:40;15.30;96.50
12971;DHT22;6550;48.650;8.774;2024-03-22T18:58:06;15.20;96.50
12971;DHT22;6550;48.650;8.774;2024-03-22T19:00:33;15.20;96.60
12971;DHT22;6550;48.650;8.774;2024-03-22T19:02:59;15.20;96.70
12971;DHT22;6550;48.650;8.774;2024-03-22T19:05:27;15.20;96.10
12971;DHT22;6550;48.650;8.774;2024-03-22T19:07:55;15.20;96.90
12971;DHT22;6550;48.650;8.774;2024-03-22T19:10:21;14.90;97.10
12971;DHT22;6550;48.650;8.774;2024-03-22T19:12:50;15.00;96.30
12971;DHT22;6550;48.650;8.774;2024-03-22T19:15:19;14.80;97.10
12971;DHT22;6550;48.650;8.774;2024-03-22T19:17:44;15.40;96.60
12971;DHT22;6550;48.650;8.774;2024-03-22T19:20:11;14.90;96.50
12971;DHT22;6550;48.650;8.774;2024-03-22T19:22:39;14.80;96.50
12971;DHT22;6550;48.650;8.774;2024-03-22T19:25:10;14.70;97.50
12971;DHT22;6550;48.650;8.774;2024-03-22T19:30:02;14.60;96.60
12971;DHT22;6550;48.650;8.774;2024-03-22T19:32:33;14.50;97.90
12971;DHT22;6550;48.650;8.774;2024-03-22T19:35:01;14.70;98.00
12971;DHT22;6550;48.650;8.774;2024-03-22T19:37:27;14.30;98.10
12971;DHT22;6550;48.650;8.774;2024-03-22T19:39:53;14.50;98.10
12971;DHT22;6550;48.650;8.774;2024-03-22T19:42:21;14.20;98.30
12971;DHT22;6550;48.650;8.774;2024-03-22T19:47:14;14.10;98.50
12971;DHT22;6550;48.650;8.774;2024-03-22T19:49:44;14.10;97.60
12971;DHT22;6550;48.650;8.774;2024-03-22T19:52:12;14.30;98.50
12971;DHT22;6550;48.650;8.774;2024-03-22T20:02:01;13.80;97.70
12971;DHT22;6550;48.650;8.774;2024-03-22T20:04:28;13.50;98.90
12971;DHT22;6550;48.650;8.774;2024-03-22T20:06:56;13.60;98.80
12971;DHT22;6550;48.650;8.774;2024-03-22T20:09:22;13.70;98.20
12971;DHT22;6550;48.650;8.774;2024-03-22T20:11:48;13.60;99.20
12971;DHT22;6550;48.650;8.774;2024-03-22T20:14:14;13.50;98.30
12971;DHT22;6550;48.650;8.774;2024-03-22T20:16:42;13.60;98.20
12971;DHT22;6550;48.650;8.774;2024-03-22T20:19:10;13.50;98.40
12971;DHT22;6550;48.650;8.774;2024-03-22T20:21:36;13.40;99.40
12971;DHT22;6550;48.650;8.774;2024-03-22T20:26:31;13.40;99.70
